createdAt,value
2019-03-31T00:01:07.679Z,1001.70
2019-03-31T00:01:55.458Z,1001.73
2019-03-31T00:02:54.473Z,1001.72
2019-03-31T00:03:54.436Z,1001.70
2019-03-31T00:04:54.425Z,1001.72
2019-03-31T00:05:54.415Z,1001.71
2019-03-31T00:06:54.403Z,1001.73
2019-03-31T00:07:54.415Z,1001.72
2019-03-31T00:08:54.394Z,1001.76
2019-03-31T00:09:54.405Z,1001.69
2019-03-31T00:10:54.358Z,1001.74
2019-03-31T00:11:54.347Z,1001.73
2019-03-31T00:12:54.336Z,1001.67
2019-03-31T00:13:54.325Z,1001.66
2019-03-31T00:14:54.346Z,1001.67
2019-03-31T00:15:54.308Z,1001.64
2019-03-31T00:16:54.298Z,1001.60
2019-03-31T00:17:54.284Z,1001.62
2019-03-31T00:18:54.270Z,1001.58
2019-03-31T00:19:54.287Z,1001.61
2019-03-31T00:20:54.246Z,1001.61
2019-03-31T00:21:54.274Z,1001.62
2019-03-31T00:22:54.248Z,1001.61
2019-03-31T00:23:54.213Z,1001.62
2019-03-31T00:24:54.205Z,1001.57
2019-03-31T00:25:54.195Z,1001.57
2019-03-31T00:26:54.178Z,1001.62
2019-03-31T00:27:54.274Z,1001.58
2019-03-31T00:28:54.159Z,1001.57
2019-03-31T00:29:54.147Z,1001.63
2019-03-31T00:30:54.134Z,1001.59
2019-03-31T00:31:54.124Z,1001.57
2019-03-31T00:32:54.138Z,1001.56
2019-03-31T00:33:54.100Z,1001.54
2019-03-31T00:34:54.119Z,1001.59
2019-03-31T00:35:54.082Z,1001.58
2019-03-31T00:36:54.103Z,1001.53
2019-03-31T00:37:54.059Z,1001.51
2019-03-31T00:38:54.046Z,1001.52
2019-03-31T00:39:54.037Z,1001.54
2019-03-31T00:40:54.021Z,1001.54
2019-03-31T00:41:54.037Z,1001.49
2019-03-31T00:42:54.010Z,1001.50
2019-03-31T00:43:53.990Z,1001.51
2019-03-31T00:44:53.980Z,1001.48
2019-03-31T00:45:53.965Z,1001.46
2019-03-31T00:46:53.983Z,1001.45
2019-03-31T00:47:53.964Z,1001.47
2019-03-31T00:48:53.931Z,1001.51
2019-03-31T00:49:53.930Z,1001.54
2019-03-31T00:50:53.913Z,1001.53
2019-03-31T00:51:53.899Z,1001.52
2019-03-31T00:52:53.921Z,1001.54
2019-03-31T00:53:53.907Z,1001.55
2019-03-31T00:54:53.870Z,1001.53
2019-03-31T00:55:53.858Z,1001.54
2019-03-31T00:56:53.844Z,1001.57
2019-03-31T00:57:53.922Z,1001.60
2019-03-31T00:58:53.826Z,1001.61
2019-03-31T00:59:53.830Z,1001.64
2019-03-31T01:00:53.799Z,1001.60
2019-03-31T01:01:53.797Z,1001.63
2019-03-31T01:02:53.775Z,1001.64
2019-03-31T01:03:53.762Z,1001.61
2019-03-31T01:04:53.811Z,1001.61
2019-03-31T01:05:53.767Z,1001.65
2019-03-31T01:06:53.757Z,1001.64
2019-03-31T01:07:53.720Z,1001.67
2019-03-31T01:08:53.707Z,1001.66
2019-03-31T01:09:53.699Z,1001.64
2019-03-31T01:10:53.714Z,1001.63
2019-03-31T01:11:53.674Z,1001.62
2019-03-31T01:12:53.686Z,1001.59
2019-03-31T01:13:53.681Z,1001.60
2019-03-31T01:14:53.641Z,1001.60
2019-03-31T01:15:53.653Z,1001.55
2019-03-31T01:16:53.620Z,1001.64
2019-03-31T01:17:53.608Z,1001.61
2019-03-31T01:18:53.598Z,1001.63
2019-03-31T01:19:53.598Z,1001.64
2019-03-31T01:20:53.607Z,1001.67
2019-03-31T01:21:53.561Z,1001.71
2019-03-31T01:22:53.564Z,1001.73
2019-03-31T01:23:53.545Z,1001.79
2019-03-31T01:24:53.549Z,1001.76
2019-03-31T01:25:53.555Z,1001.77
2019-03-31T01:26:53.507Z,1001.77
2019-03-31T01:27:53.494Z,1001.79
2019-03-31T01:28:53.524Z,1001.79
2019-03-31T01:29:53.475Z,1001.81
2019-03-31T01:30:53.480Z,1001.83
2019-03-31T01:31:53.456Z,1001.82
2019-03-31T01:32:53.463Z,1001.84
2019-03-31T01:33:53.427Z,1001.84
2019-03-31T01:34:53.454Z,1001.79
2019-03-31T01:35:53.405Z,1001.85
2019-03-31T01:36:53.395Z,1001.83
2019-03-31T01:37:53.414Z,1001.88
2019-03-31T01:38:53.397Z,1001.86
2019-03-31T01:39:53.363Z,1001.88
2019-03-31T01:40:53.384Z,1001.86
2019-03-31T01:41:53.342Z,1001.84
2019-03-31T01:42:53.352Z,1001.86
2019-03-31T01:43:53.771Z,1001.88
2019-03-31T01:44:53.309Z,1001.88
2019-03-31T01:45:53.317Z,1001.93
2019-03-31T01:46:53.285Z,1001.94
2019-03-31T01:47:53.271Z,1001.95
2019-03-31T01:48:53.261Z,1001.93
2019-03-31T01:49:53.256Z,1001.93
2019-03-31T01:50:53.270Z,1001.96
2019-03-31T01:51:53.232Z,1001.91
2019-03-31T01:52:53.222Z,1001.90
2019-03-31T01:53:53.203Z,1001.93
2019-03-31T01:54:53.210Z,1001.93
2019-03-31T01:55:53.274Z,1001.93
2019-03-31T01:56:53.174Z,1001.94
2019-03-31T01:57:53.166Z,1001.90
2019-03-31T01:58:53.165Z,1001.89
2019-03-31T01:59:53.190Z,1001.89
2019-03-31T02:00:53.125Z,1001.89
2019-03-31T02:02:04.014Z,1001.92
2019-03-31T02:02:54.102Z,1001.89
2019-03-31T02:03:53.786Z,1001.90
2019-03-31T02:04:53.129Z,1001.88
2019-03-31T02:05:53.093Z,1001.87
2019-03-31T02:06:53.059Z,1001.89
2019-03-31T02:07:53.264Z,1001.86
2019-03-31T02:08:53.034Z,1001.89
2019-03-31T02:09:53.327Z,1001.88
2019-03-31T02:10:53.014Z,1001.87
2019-03-31T02:11:53.050Z,1001.87
2019-03-31T02:12:53.000Z,1001.92
2019-03-31T02:13:53.016Z,1001.85
2019-03-31T02:14:52.969Z,1001.83
2019-03-31T02:15:52.960Z,1001.84
2019-03-31T02:16:52.946Z,1001.84
2019-03-31T02:17:52.974Z,1001.91
2019-03-31T02:18:52.951Z,1001.89
2019-03-31T02:19:52.913Z,1001.83
2019-03-31T02:20:52.902Z,1001.89
2019-03-31T02:21:52.895Z,1001.84
2019-03-31T02:22:52.887Z,1001.86
2019-03-31T02:23:52.893Z,1001.85
2019-03-31T02:24:52.855Z,1001.87
2019-03-31T02:25:52.858Z,1001.82
2019-03-31T02:26:52.835Z,1001.83
2019-03-31T02:27:52.837Z,1001.81
2019-03-31T02:28:52.809Z,1001.83
2019-03-31T02:29:52.817Z,1001.79
2019-03-31T02:30:52.814Z,1001.82
2019-03-31T02:31:52.805Z,1001.83
2019-03-31T02:32:52.771Z,1001.84
2019-03-31T02:33:52.757Z,1001.85
2019-03-31T02:34:52.746Z,1001.82
2019-03-31T02:35:52.759Z,1001.84
2019-03-31T02:36:52.730Z,1001.80
2019-03-31T02:37:52.720Z,1001.82
2019-03-31T02:38:52.709Z,1001.81
2019-03-31T02:39:52.718Z,1001.83
2019-03-31T02:40:52.678Z,1001.85
2019-03-31T02:41:52.666Z,1001.84
2019-03-31T02:42:52.715Z,1001.78
2019-03-31T02:43:52.646Z,1001.79
2019-03-31T02:44:52.655Z,1001.79
2019-03-31T02:45:52.631Z,1001.82
2019-03-31T02:46:52.610Z,1001.78
2019-03-31T02:47:52.624Z,1001.77
2019-03-31T02:48:52.589Z,1001.81
2019-03-31T02:49:52.579Z,1001.84
2019-03-31T02:50:52.581Z,1001.80
2019-03-31T02:51:52.580Z,1001.80
2019-03-31T02:52:52.544Z,1001.84
2019-03-31T02:53:52.565Z,1001.84
2019-03-31T02:54:52.549Z,1001.85
2019-03-31T02:55:52.510Z,1001.90
2019-03-31T02:56:52.504Z,1001.90
2019-03-31T02:57:52.514Z,1001.90
2019-03-31T02:58:52.482Z,1001.93
2019-03-31T02:59:52.484Z,1001.95
2019-03-31T03:00:52.457Z,1001.96
2019-03-31T03:01:52.468Z,1001.91
2019-03-31T03:02:52.430Z,1001.94
2019-03-31T03:03:52.481Z,1001.90
2019-03-31T03:04:52.543Z,1001.94
2019-03-31T03:05:52.399Z,1001.94
2019-03-31T03:06:52.401Z,1001.93
2019-03-31T03:07:52.382Z,1001.93
2019-03-31T03:08:52.390Z,1001.93
2019-03-31T03:09:52.354Z,1001.97
2019-03-31T03:10:52.418Z,1001.92
2019-03-31T03:11:52.335Z,1001.91
2019-03-31T03:12:52.347Z,1001.95
2019-03-31T03:13:52.310Z,1001.92
2019-03-31T03:14:52.313Z,1001.92
2019-03-31T03:15:52.316Z,1001.91
2019-03-31T03:16:52.279Z,1001.95
2019-03-31T03:17:52.264Z,1001.97
2019-03-31T03:18:52.252Z,1001.95
2019-03-31T03:19:52.263Z,1001.97
2019-03-31T03:20:52.238Z,1002.02
2019-03-31T03:21:52.227Z,1002.02
2019-03-31T03:22:52.207Z,1001.98
2019-03-31T03:23:52.198Z,1001.99
2019-03-31T03:24:52.215Z,1001.98
2019-03-31T03:25:56.242Z,1001.92
2019-03-31T03:26:52.172Z,1001.95
2019-03-31T03:27:52.155Z,1001.94
2019-03-31T03:28:52.144Z,1001.95
2019-03-31T03:29:52.159Z,1001.93
2019-03-31T03:30:52.206Z,1001.98
2019-03-31T03:31:52.145Z,1002.00
2019-03-31T03:33:13.527Z,1002.07
2019-03-31T03:33:53.107Z,1002.02
2019-03-31T03:34:52.095Z,1002.07
2019-03-31T03:35:52.092Z,1002.04
2019-03-31T03:36:52.082Z,1002.06
2019-03-31T03:37:52.046Z,1002.06
2019-03-31T03:38:52.028Z,1002.04
2019-03-31T03:39:52.060Z,1002.07
2019-03-31T03:40:52.013Z,1002.04
2019-03-31T03:41:51.999Z,1002.05
2019-03-31T03:42:51.985Z,1002.06
2019-03-31T03:43:59.565Z,1002.09
2019-03-31T03:44:53.003Z,1002.09
2019-03-31T03:45:51.948Z,1002.14
2019-03-31T03:46:51.962Z,1002.11
2019-03-31T03:47:51.932Z,1002.14
2019-03-31T03:48:51.967Z,1002.12
2019-03-31T03:49:51.938Z,1002.13
2019-03-31T03:50:51.900Z,1002.14
2019-03-31T03:51:51.893Z,1002.12
2019-03-31T03:52:51.872Z,1002.14
2019-03-31T03:53:51.887Z,1002.17
2019-03-31T03:54:51.882Z,1002.18
2019-03-31T03:55:51.839Z,1002.15
2019-03-31T03:56:51.827Z,1002.19
2019-03-31T03:57:51.821Z,1002.20
2019-03-31T03:58:51.805Z,1002.24
2019-03-31T03:59:51.853Z,1002.28
2019-03-31T04:00:51.808Z,1002.25
2019-03-31T04:01:51.774Z,1002.24
2019-03-31T04:02:51.765Z,1002.28
2019-03-31T04:03:51.751Z,1002.28
2019-03-31T04:04:51.783Z,1002.28
2019-03-31T04:05:51.729Z,1002.26
2019-03-31T04:06:51.736Z,1002.27
2019-03-31T04:07:51.706Z,1002.28
2019-03-31T04:08:51.711Z,1002.29
2019-03-31T04:09:51.718Z,1002.29
2019-03-31T04:10:51.672Z,1002.27
2019-03-31T04:11:51.676Z,1002.29
2019-03-31T04:12:51.652Z,1002.29
2019-03-31T04:13:51.638Z,1002.32
2019-03-31T04:14:51.658Z,1002.34
2019-03-31T04:15:51.613Z,1002.35
2019-03-31T04:16:51.603Z,1002.37
2019-03-31T04:17:51.630Z,1002.38
2019-03-31T04:18:51.598Z,1002.37
2019-03-31T04:19:51.568Z,1002.42
2019-03-31T04:20:51.559Z,1002.43
2019-03-31T04:21:51.552Z,1002.46
2019-03-31T04:22:51.559Z,1002.41
2019-03-31T04:23:51.559Z,1002.45
2019-03-31T04:24:51.521Z,1002.45
2019-03-31T04:25:51.536Z,1002.47
2019-03-31T04:26:51.497Z,1002.50
2019-03-31T04:27:51.501Z,1002.49
2019-03-31T04:28:51.470Z,1002.46
2019-03-31T04:29:51.489Z,1002.49
2019-03-31T04:30:51.447Z,1002.44
2019-03-31T04:31:51.442Z,1002.45
2019-03-31T04:32:51.430Z,1002.46
2019-03-31T04:33:52.961Z,1002.47
2019-03-31T04:34:51.428Z,1002.50
2019-03-31T04:35:51.429Z,1002.50
2019-03-31T04:36:51.392Z,1002.52
2019-03-31T04:37:51.370Z,1002.56
2019-03-31T04:38:51.366Z,1002.55
2019-03-31T04:39:51.370Z,1002.53
2019-03-31T04:40:51.333Z,1002.56
2019-03-31T04:41:51.330Z,1002.51
2019-03-31T04:42:51.316Z,1002.45
2019-03-31T04:43:51.302Z,1002.51
2019-03-31T04:44:51.313Z,1002.49
2019-03-31T04:45:51.278Z,1002.51
2019-03-31T04:46:51.286Z,1002.51
2019-03-31T04:47:51.287Z,1002.52
2019-03-31T04:48:51.248Z,1002.56
2019-03-31T04:49:51.239Z,1002.55
2019-03-31T04:50:52.214Z,1002.56
2019-03-31T04:51:51.217Z,1002.59
2019-03-31T04:52:51.223Z,1002.61
2019-03-31T04:53:51.186Z,1002.61
2019-03-31T04:54:51.178Z,1002.60
2019-03-31T04:55:51.164Z,1002.60
2019-03-31T04:56:51.176Z,1002.64
2019-03-31T04:57:51.145Z,1002.65
2019-03-31T04:58:51.159Z,1002.61
2019-03-31T04:59:51.182Z,1002.61
2019-03-31T05:00:51.119Z,1002.65
2019-03-31T05:01:51.105Z,1002.59
2019-03-31T05:02:51.089Z,1002.60
2019-03-31T05:04:03.859Z,1002.60
2019-03-31T05:04:52.068Z,1002.59
2019-03-31T05:05:51.051Z,1002.65
2019-03-31T05:06:51.077Z,1002.67
2019-03-31T05:07:51.062Z,1002.65
2019-03-31T05:08:51.025Z,1002.63
2019-03-31T05:09:51.007Z,1002.61
2019-03-31T05:10:51.003Z,1002.63
2019-03-31T05:11:51.022Z,1002.68
2019-03-31T05:12:50.991Z,1002.68
2019-03-31T05:13:50.964Z,1002.70
2019-03-31T05:14:50.954Z,1002.70
2019-03-31T05:15:50.949Z,1002.70
2019-03-31T05:16:50.963Z,1002.76
2019-03-31T05:17:50.943Z,1002.77
2019-03-31T05:18:50.908Z,1002.84
2019-03-31T05:19:50.897Z,1002.84
2019-03-31T05:20:50.910Z,1002.86
2019-03-31T05:21:50.881Z,1002.91
2019-03-31T05:22:52.820Z,1002.91
2019-03-31T05:23:50.911Z,1002.93
2019-03-31T05:24:50.849Z,1002.94
2019-03-31T05:25:50.833Z,1002.98
2019-03-31T05:26:50.847Z,1002.97
2019-03-31T05:27:50.810Z,1002.99
2019-03-31T05:28:50.803Z,1003.01
2019-03-31T05:29:50.790Z,1003.02
2019-03-31T05:30:50.805Z,1003.03
2019-03-31T05:31:50.769Z,1003.07
2019-03-31T05:32:50.750Z,1003.06
2019-03-31T05:33:50.763Z,1003.07
2019-03-31T05:34:50.728Z,1003.07
2019-03-31T05:35:50.724Z,1003.06
2019-03-31T05:36:50.743Z,1003.03
2019-03-31T05:37:51.590Z,1003.07
2019-03-31T05:38:50.686Z,1003.05
2019-03-31T05:39:50.670Z,1003.07
2019-03-31T05:40:50.660Z,1003.09
2019-03-31T05:41:50.674Z,1003.10
2019-03-31T05:42:50.641Z,1003.08
2019-03-31T05:44:04.802Z,1003.09
2019-03-31T05:44:51.641Z,1003.14
2019-03-31T05:45:52.464Z,1003.19
2019-03-31T05:46:50.593Z,1003.22
2019-03-31T05:47:50.582Z,1003.22
2019-03-31T05:48:50.604Z,1003.20
2019-03-31T05:49:50.561Z,1003.21
2019-03-31T05:50:50.555Z,1003.20
2019-03-31T05:51:50.538Z,1003.24
2019-03-31T05:52:50.526Z,1003.25
2019-03-31T05:53:50.533Z,1003.28
2019-03-31T05:54:50.508Z,1003.27
2019-03-31T05:55:50.500Z,1003.30
2019-03-31T05:56:50.481Z,1003.26
2019-03-31T05:57:50.496Z,1003.28
2019-03-31T05:58:50.483Z,1003.33
2019-03-31T05:59:50.447Z,1003.37
2019-03-31T06:00:50.440Z,1003.37
2019-03-31T06:01:50.456Z,1003.39
2019-03-31T06:02:50.418Z,1003.39
2019-03-31T06:03:50.401Z,1003.38
2019-03-31T06:04:50.391Z,1003.40
2019-03-31T06:05:50.403Z,1003.42
2019-03-31T06:06:50.372Z,1003.42
2019-03-31T06:07:50.357Z,1003.43
2019-03-31T06:08:50.351Z,1003.44
2019-03-31T06:09:50.345Z,1003.43
2019-03-31T06:10:50.393Z,1003.45
2019-03-31T06:11:53.178Z,1003.51
2019-03-31T06:12:50.328Z,1003.49
2019-03-31T06:13:50.300Z,1003.49
2019-03-31T06:14:50.283Z,1003.54
2019-03-31T06:15:50.292Z,1003.53
2019-03-31T06:16:50.258Z,1003.57
2019-03-31T06:17:50.397Z,1003.61
2019-03-31T06:18:50.243Z,1003.57
2019-03-31T06:19:50.228Z,1003.60
2019-03-31T06:20:50.378Z,1003.60
2019-03-31T06:21:50.200Z,1003.58
2019-03-31T06:22:50.189Z,1003.61
2019-03-31T06:23:50.201Z,1003.60
2019-03-31T06:24:50.172Z,1003.61
2019-03-31T06:25:50.184Z,1003.59
2019-03-31T06:26:50.151Z,1003.65
2019-03-31T06:27:50.134Z,1003.67
2019-03-31T06:28:50.188Z,1003.68
2019-03-31T06:29:50.155Z,1003.71
2019-03-31T06:30:50.102Z,1003.72
2019-03-31T06:31:50.122Z,1003.69
2019-03-31T06:32:50.079Z,1003.74
2019-03-31T06:33:50.090Z,1003.69
2019-03-31T06:34:50.092Z,1003.73
2019-03-31T06:35:50.048Z,1003.72
2019-03-31T06:36:50.032Z,1003.73
2019-03-31T06:37:50.022Z,1003.72
2019-03-31T06:38:50.009Z,1003.78
2019-03-31T06:39:50.034Z,1003.82
2019-03-31T06:40:49.991Z,1003.81
2019-03-31T06:41:50.014Z,1003.82
2019-03-31T06:42:49.967Z,1003.86
2019-03-31T06:43:49.955Z,1003.81
2019-03-31T06:44:49.945Z,1003.83
2019-03-31T06:45:49.936Z,1003.86
2019-03-31T06:46:49.955Z,1003.90
2019-03-31T06:47:49.910Z,1003.84
2019-03-31T06:48:49.901Z,1003.91
2019-03-31T06:49:49.895Z,1003.86
2019-03-31T06:50:49.877Z,1003.94
2019-03-31T06:51:49.896Z,1003.91
2019-03-31T06:52:49.872Z,1003.90
2019-03-31T06:53:49.845Z,1003.98
2019-03-31T06:54:49.848Z,1003.95
2019-03-31T06:55:49.819Z,1003.98
2019-03-31T06:56:49.809Z,1004.00
2019-03-31T06:57:49.821Z,1004.04
2019-03-31T06:58:49.796Z,1004.07
2019-03-31T06:59:49.775Z,1004.02
2019-03-31T07:00:49.766Z,1004.09
2019-03-31T07:01:49.752Z,1004.12
2019-03-31T07:02:49.771Z,1004.10
2019-03-31T07:03:49.733Z,1004.11
2019-03-31T07:05:00.496Z,1004.15
2019-03-31T07:05:50.706Z,1004.10
2019-03-31T07:06:49.697Z,1004.12
2019-03-31T07:07:49.740Z,1004.17
2019-03-31T07:08:49.678Z,1004.15
2019-03-31T07:09:49.662Z,1004.25
2019-03-31T07:10:49.688Z,1004.21
2019-03-31T07:11:49.660Z,1004.25
2019-03-31T07:12:49.629Z,1004.25
2019-03-31T07:13:49.626Z,1004.26
2019-03-31T07:14:49.606Z,1004.25
2019-03-31T07:15:49.620Z,1004.26
2019-03-31T07:16:49.613Z,1004.29
2019-03-31T07:17:49.573Z,1004.34
2019-03-31T07:18:49.561Z,1004.29
2019-03-31T07:19:49.550Z,1004.30
2019-03-31T07:20:49.564Z,1004.32
2019-03-31T07:21:49.564Z,1004.32
2019-03-31T07:22:49.533Z,1004.29
2019-03-31T07:23:49.516Z,1004.32
2019-03-31T07:24:49.495Z,1004.34
2019-03-31T07:25:49.484Z,1004.35
2019-03-31T07:26:49.495Z,1004.35
2019-03-31T07:27:49.482Z,1004.38
2019-03-31T07:28:49.451Z,1004.34
2019-03-31T07:29:49.447Z,1004.35
2019-03-31T07:30:49.451Z,1004.40
2019-03-31T07:31:49.416Z,1004.39
2019-03-31T07:32:49.431Z,1004.41
2019-03-31T07:33:49.396Z,1004.45
2019-03-31T07:34:49.382Z,1004.38
2019-03-31T07:35:49.402Z,1004.34
2019-03-31T07:36:49.365Z,1004.43
2019-03-31T07:37:49.403Z,1004.42
2019-03-31T07:38:49.449Z,1004.44
2019-03-31T07:39:49.369Z,1004.41
2019-03-31T07:40:49.718Z,1004.43
2019-03-31T07:41:49.622Z,1004.48
2019-03-31T07:42:51.006Z,1004.49
2019-03-31T07:43:49.311Z,1004.46
2019-03-31T07:44:49.271Z,1004.49
2019-03-31T07:45:49.256Z,1004.44
2019-03-31T07:46:49.247Z,1004.51
2019-03-31T07:47:49.242Z,1004.58
2019-03-31T07:48:49.246Z,1004.63
2019-03-31T07:49:49.212Z,1004.56
2019-03-31T07:50:49.201Z,1004.53
2019-03-31T07:51:49.211Z,1004.53
2019-03-31T07:52:49.178Z,1004.62
2019-03-31T07:53:49.172Z,1004.56
2019-03-31T07:54:49.240Z,1004.56
2019-03-31T07:55:49.172Z,1004.58
2019-03-31T07:56:49.134Z,1004.60
2019-03-31T07:57:49.141Z,1004.62
2019-03-31T07:58:49.109Z,1004.65
2019-03-31T07:59:49.117Z,1004.65
2019-03-31T08:00:49.117Z,1004.68
2019-03-31T08:01:49.095Z,1004.70
2019-03-31T08:02:49.066Z,1004.71
2019-03-31T08:03:49.056Z,1004.71
2019-03-31T08:04:49.042Z,1004.72
2019-03-31T08:05:49.063Z,1004.75
2019-03-31T08:06:49.020Z,1004.75
2019-03-31T08:07:49.031Z,1004.80
2019-03-31T08:08:49.000Z,1004.80
2019-03-31T08:09:48.997Z,1004.79
2019-03-31T08:10:48.998Z,1004.80
2019-03-31T08:11:48.966Z,1004.80
2019-03-31T08:12:48.974Z,1004.82
2019-03-31T08:13:48.964Z,1004.81
2019-03-31T08:14:48.930Z,1004.78
2019-03-31T08:15:48.921Z,1004.77
2019-03-31T08:16:48.915Z,1004.82
2019-03-31T08:17:48.895Z,1004.81
2019-03-31T08:18:48.906Z,1004.83
2019-03-31T08:19:48.898Z,1004.79
2019-03-31T08:20:48.862Z,1004.78
2019-03-31T08:21:48.859Z,1004.84
2019-03-31T08:22:48.862Z,1004.82
2019-03-31T08:23:48.828Z,1004.86
2019-03-31T08:24:48.833Z,1004.85
2019-03-31T08:25:48.832Z,1004.86
2019-03-31T08:26:48.794Z,1004.84
2019-03-31T08:27:48.787Z,1004.86
2019-03-31T08:28:48.825Z,1004.81
2019-03-31T08:29:59.888Z,1004.82
2019-03-31T08:30:49.774Z,1004.91
2019-03-31T08:31:48.740Z,1004.89
2019-03-31T08:32:48.763Z,1004.93
2019-03-31T08:33:48.715Z,1004.88
2019-03-31T08:34:48.709Z,1004.85
2019-03-31T08:35:48.723Z,1004.87
2019-03-31T08:36:48.687Z,1004.89
2019-03-31T08:37:48.670Z,1004.90
2019-03-31T08:38:48.659Z,1004.90
2019-03-31T08:39:48.660Z,1004.91
2019-03-31T08:40:48.677Z,1004.91
2019-03-31T08:41:48.627Z,1004.93
2019-03-31T08:42:48.623Z,1004.95
2019-03-31T08:43:48.602Z,1004.96
2019-03-31T08:44:48.595Z,1004.92
2019-03-31T08:45:48.613Z,1005.00
2019-03-31T08:46:48.568Z,1004.91
2019-03-31T08:47:48.577Z,1005.01
2019-03-31T08:48:48.569Z,1005.00
2019-03-31T08:49:48.569Z,1004.94
2019-03-31T08:50:48.569Z,1005.01
2019-03-31T08:51:48.512Z,1004.99
2019-03-31T08:52:48.508Z,1005.04
2019-03-31T08:53:48.490Z,1005.02
2019-03-31T08:54:48.507Z,1005.02
2019-03-31T08:55:48.518Z,1004.99
2019-03-31T08:56:48.468Z,1004.99
2019-03-31T08:57:48.449Z,1005.08
2019-03-31T08:58:48.472Z,1004.98
2019-03-31T08:59:48.423Z,1004.99
2019-03-31T09:00:48.410Z,1004.93
2019-03-31T09:01:48.434Z,1005.00
2019-03-31T09:02:48.423Z,1005.00
2019-03-31T09:03:48.386Z,1005.04
2019-03-31T09:04:48.373Z,1004.98
2019-03-31T09:06:00.906Z,1004.97
2019-03-31T09:06:49.407Z,1005.07
2019-03-31T09:07:48.334Z,1005.08
2019-03-31T09:08:48.320Z,1005.09
2019-03-31T09:09:48.322Z,1005.13
2019-03-31T09:10:48.328Z,1005.08
2019-03-31T09:11:48.313Z,1005.06
2019-03-31T09:12:48.757Z,1005.01
2019-03-31T09:13:48.296Z,1005.03
2019-03-31T09:14:48.256Z,1005.07
2019-03-31T09:15:48.287Z,1005.01
2019-03-31T09:16:48.234Z,1005.00
2019-03-31T09:17:48.286Z,1005.02
2019-03-31T09:18:48.217Z,1005.03
2019-03-31T09:19:48.254Z,1004.95
2019-03-31T09:20:48.211Z,1004.99
2019-03-31T09:21:48.214Z,1004.95
2019-03-31T09:22:48.180Z,1005.01
2019-03-31T09:23:48.160Z,1005.02
2019-03-31T09:24:48.162Z,1005.06
2019-03-31T09:25:48.130Z,1005.00
2019-03-31T09:26:48.174Z,1004.98
2019-03-31T09:27:48.107Z,1004.97
2019-03-31T09:28:48.151Z,1005.06
2019-03-31T09:29:48.094Z,1004.98
2019-03-31T09:30:48.078Z,1005.04
2019-03-31T09:31:48.076Z,1005.14
2019-03-31T09:32:48.059Z,1005.13
2019-03-31T09:33:48.110Z,1005.18
2019-03-31T09:34:48.031Z,1005.08
2019-03-31T09:35:48.024Z,1005.08
2019-03-31T09:36:48.003Z,1005.13
2019-03-31T09:37:48.049Z,1005.14
2019-03-31T09:38:48.595Z,1005.21
2019-03-31T09:39:47.969Z,1005.21
2019-03-31T09:40:47.990Z,1005.13
2019-03-31T09:41:47.970Z,1005.21
2019-03-31T09:42:47.937Z,1005.14
2019-03-31T09:43:47.948Z,1005.21
2019-03-31T09:44:47.915Z,1005.18
2019-03-31T09:45:47.919Z,1005.27
2019-03-31T09:46:47.890Z,1005.22
2019-03-31T09:47:47.907Z,1005.22
2019-03-31T09:48:47.871Z,1005.40
2019-03-31T09:49:47.862Z,1005.29
2019-03-31T09:50:47.846Z,1005.27
2019-03-31T09:51:47.946Z,1005.26
2019-03-31T09:52:47.889Z,1005.28
2019-03-31T09:53:47.818Z,1005.29
2019-03-31T09:54:47.801Z,1005.34
2019-03-31T09:55:47.793Z,1005.27
2019-03-31T09:56:47.778Z,1005.32
2019-03-31T09:57:47.803Z,1005.42
2019-03-31T09:58:47.777Z,1005.37
2019-03-31T09:59:47.751Z,1005.24
2019-03-31T10:00:47.734Z,1005.31
2019-03-31T10:01:47.720Z,1005.24
2019-03-31T10:02:47.710Z,1005.22
2019-03-31T10:03:47.731Z,1005.28
2019-03-31T10:04:47.686Z,1005.23
2019-03-31T10:05:48.380Z,1005.26
2019-03-31T10:06:47.663Z,1005.21
2019-03-31T10:07:47.668Z,1005.26
2019-03-31T10:08:47.668Z,1005.31
2019-03-31T10:09:47.656Z,1005.33
2019-03-31T10:10:47.645Z,1005.32
2019-03-31T10:11:47.609Z,1005.26
2019-03-31T10:12:47.619Z,1005.28
2019-03-31T10:13:47.607Z,1005.30
2019-03-31T10:14:47.574Z,1005.39
2019-03-31T10:15:47.562Z,1005.35
2019-03-31T10:16:47.560Z,1005.33
2019-03-31T10:17:47.539Z,1005.33
2019-03-31T10:18:47.553Z,1005.32
2019-03-31T10:19:47.516Z,1005.30
2019-03-31T10:20:47.507Z,1005.38
2019-03-31T10:21:47.495Z,1005.38
2019-03-31T10:22:47.526Z,1005.33
2019-03-31T10:23:47.503Z,1005.36
2019-03-31T10:24:47.459Z,1005.40
2019-03-31T10:25:47.520Z,1005.37
2019-03-31T10:26:47.439Z,1005.42
2019-03-31T10:27:47.428Z,1005.37
2019-03-31T10:28:47.449Z,1005.39
2019-03-31T10:29:47.427Z,1005.35
2019-03-31T10:30:47.430Z,1005.36
2019-03-31T10:31:47.412Z,1005.38
2019-03-31T10:32:47.370Z,1005.37
2019-03-31T10:33:47.361Z,1005.40
2019-03-31T10:34:47.348Z,1005.38
2019-03-31T10:35:47.415Z,1005.39
2019-03-31T10:36:47.349Z,1005.36
2019-03-31T10:37:47.314Z,1005.35
2019-03-31T10:38:47.308Z,1005.38
2019-03-31T10:39:47.328Z,1005.39
2019-03-31T10:40:47.283Z,1005.41
2019-03-31T10:41:47.299Z,1005.39
2019-03-31T10:42:47.257Z,1005.37
2019-03-31T10:43:47.245Z,1005.39
2019-03-31T10:44:47.268Z,1005.44
2019-03-31T10:45:47.224Z,1005.43
2019-03-31T10:46:47.212Z,1005.39
2019-03-31T10:47:47.235Z,1005.44
2019-03-31T10:48:47.189Z,1005.40
2019-03-31T10:49:47.192Z,1005.40
2019-03-31T10:50:47.169Z,1005.49
2019-03-31T10:51:47.154Z,1005.49
2019-03-31T10:52:47.252Z,1005.50
2019-03-31T10:53:47.136Z,1005.39
2019-03-31T10:54:47.121Z,1005.41
2019-03-31T10:55:47.151Z,1005.40
2019-03-31T10:56:47.263Z,1005.42
2019-03-31T10:57:47.093Z,1005.40
2019-03-31T10:58:47.124Z,1005.41
2019-03-31T10:59:47.067Z,1005.46
2019-03-31T11:00:47.052Z,1005.45
2019-03-31T11:01:47.165Z,1005.50
2019-03-31T11:02:47.042Z,1005.42
2019-03-31T11:03:47.027Z,1005.51
2019-03-31T11:04:47.008Z,1005.54
2019-03-31T11:05:47.045Z,1005.45
2019-03-31T11:06:58.452Z,1005.46
2019-03-31T11:07:47.999Z,1005.43
2019-03-31T11:08:46.965Z,1005.52
2019-03-31T11:09:46.949Z,1005.49
2019-03-31T11:10:46.974Z,1005.52
2019-03-31T11:11:46.932Z,1005.45
2019-03-31T11:12:46.917Z,1005.51
2019-03-31T11:13:46.946Z,1005.50
2019-03-31T11:14:46.893Z,1005.53
2019-03-31T11:15:46.912Z,1005.48
2019-03-31T11:16:46.872Z,1005.47
2019-03-31T11:17:46.876Z,1005.58
2019-03-31T11:18:46.847Z,1005.54
2019-03-31T11:19:46.837Z,1005.55
2019-03-31T11:20:46.848Z,1005.53
2019-03-31T11:21:46.857Z,1005.54
2019-03-31T11:22:46.807Z,1005.54
2019-03-31T11:23:46.830Z,1005.56
2019-03-31T11:24:46.787Z,1005.67
2019-03-31T11:25:46.802Z,1005.70
2019-03-31T11:26:46.788Z,1005.71
2019-03-31T11:27:46.748Z,1005.68
2019-03-31T11:28:46.742Z,1005.62
2019-03-31T11:29:46.759Z,1005.64
2019-03-31T11:30:46.729Z,1005.63
2019-03-31T11:31:46.743Z,1005.67
2019-03-31T11:32:46.701Z,1005.68
2019-03-31T11:33:46.678Z,1005.73
2019-03-31T11:34:46.679Z,1005.67
2019-03-31T11:35:46.673Z,1005.70
2019-03-31T11:36:46.644Z,1005.69
2019-03-31T11:37:46.666Z,1005.69
2019-03-31T11:38:46.645Z,1005.67
2019-03-31T11:39:46.611Z,1005.67
2019-03-31T11:40:46.600Z,1005.59
2019-03-31T11:41:46.588Z,1005.67
2019-03-31T11:42:46.603Z,1005.61
2019-03-31T11:43:46.591Z,1005.66
2019-03-31T11:44:46.558Z,1005.71
2019-03-31T11:45:46.565Z,1005.64
2019-03-31T11:46:46.535Z,1005.70
2019-03-31T11:47:46.566Z,1005.66
2019-03-31T11:48:46.517Z,1005.70
2019-03-31T11:49:46.500Z,1005.70
2019-03-31T11:50:46.488Z,1005.73
2019-03-31T11:51:46.475Z,1005.78
2019-03-31T11:52:46.502Z,1005.69
2019-03-31T11:53:46.456Z,1005.76
2019-03-31T11:54:46.447Z,1005.76
2019-03-31T11:55:46.436Z,1005.80
2019-03-31T11:56:46.420Z,1005.77
2019-03-31T11:57:46.432Z,1005.80
2019-03-31T11:58:46.398Z,1005.89
2019-03-31T11:59:49.521Z,1005.82
2019-03-31T12:00:46.404Z,1005.78
2019-03-31T12:01:46.363Z,1005.78
2019-03-31T12:02:46.357Z,1005.79
2019-03-31T12:03:46.366Z,1005.74
2019-03-31T12:04:46.340Z,1005.75
2019-03-31T12:05:46.325Z,1005.72